PWSweather.com
Personal Weather Stations
Station Observations
BANEKERE1
AntwerpenBE

AntwerpenBE

Lat: 51.2809101, Lon: 4.4202713

Elevation: 40

Station Type:

http://www.akker.be

Latest ConditionsUpdated 2:00:01 PM GMT+01:01 Thursday, Jul 24, 2014
Currently Today's Max Today's Min Today's Average
Temperature 82.0°F27.8°C 83.0°F28.3°C 64.3°F17.9°C 72.6°F22.6°C
Dew Point 59.2°F15.1°C 62.2°F16.8°C 56.7°F13.7°C 60.2°F15.7°C
Winds 1.4 mph NNE2.3 kmh NNE 4.2 mph ENE6.8 kmh ENE - 1.4 mph 2.3 kmh
Wind Gusts 9.9 mph15.9 kmh 9.9 mph15.9 kmh - -
Humidity 46% 83% 42% 67%
Pressure 29.98 in1015.2 mb 30.02 in1016.6 mb 29.98 in1015.2 mb -
Hour Temp Dew Point Humidity Winds Wind Gusts Pressure Precip Precip Rate Daily Precip Total
02:00 PM 82.0°F27.8°C 59.2°F15.1°C 46% 1.4 mph NNE2.3 kmh NNE 9.9 mph15.9 kmh 29.98 in1015.2 mb 0.00 in0.0 mm 0.00 in/hr0.0 mm/hr 0.00 in0.0 mm
01:50 PM 82.3°F27.9°C 61.2°F16.2°C 49% 3.8 mph NNE6.1 kmh NNE 5.5 mph8.9 kmh 29.98 in1015.2 mb 0.00 in0.0 mm 0.00 in/hr0.0 mm/hr 0.00 in0.0 mm
01:40 PM 82.6°F28.1°C 59.1°F15.1°C 45% 0.9 mph SE1.4 kmh SE 2.2 mph3.5 kmh 29.98 in1015.2 mb 0.00 in0.0 mm 0.00 in/hr0.0 mm/hr 0.00 in0.0 mm
01:30 PM 83.0°F28.3°C 60.7°F15.9°C 47% 2.0 mph N3.2 kmh N 6.6 mph10.6 kmh 29.98 in1015.2 mb 0.00 in0.0 mm 0.00 in/hr0.0 mm/hr 0.00 in0.0 mm
01:20 PM 82.4°F28.0°C 61.3°F16.3°C 49% 0.7 mph E1.1 kmh E 3.3 mph5.3 kmh 29.98 in1015.2 mb 0.00 in0.0 mm 0.00 in/hr0.0 mm/hr 0.00 in0.0 mm
01:10 PM 82.5°F28.1°C 60.8°F16.0°C 48% 3.0 mph ENE4.8 kmh ENE 4.4 mph7.1 kmh 29.98 in1015.2 mb 0.00 in0.0 mm 0.00 in/hr0.0 mm/hr 0.00 in0.0 mm
01:00 PM 82.0°F27.8°C 57.9°F14.4°C 44% 3.1 mph SE5.0 kmh SE 6.6 mph10.6 kmh 29.98 in1015.2 mb 0.00 in0.0 mm 0.00 in/hr0.0 mm/hr 0.00 in0.0 mm
12:50 PM 82.0°F27.8°C 56.7°F13.7°C 42% 1.8 mph E2.9 kmh E 3.3 mph5.3 kmh 29.99 in1015.6 mb 0.00 in0.0 mm 0.00 in/hr0.0 mm/hr 0.00 in0.0 mm
12:40 PM 81.3°F27.4°C 57.9°F14.4°C 45% 1.6 mph NE2.6 kmh NE 5.5 mph8.9 kmh 29.99 in1015.6 mb 0.00 in0.0 mm 0.00 in/hr0.0 mm/hr 0.00 in0.0 mm
12:30 PM 80.7°F27.1°C 59.8°F15.4°C 49% 2.5 mph E4.0 kmh E 6.6 mph10.6 kmh 29.99 in1015.6 mb 0.00 in0.0 mm 0.00 in/hr0.0 mm/hr 0.00 in0.0 mm
12:20 PM 80.9°F27.2°C 59.9°F15.5°C 49% 0.7 mph ESE1.1 kmh ESE 2.2 mph3.5 kmh 29.99 in1015.6 mb 0.00 in0.0 mm 0.00 in/hr0.0 mm/hr 0.00 in0.0 mm
12:10 PM 80.3°F26.8°C 60.0°F15.6°C 50% 3.2 mph ENE5.1 kmh ENE 4.4 mph7.1 kmh 29.99 in1015.6 mb 0.00 in0.0 mm 0.00 in/hr0.0 mm/hr 0.00 in0.0 mm
12:00 PM 80.0°F26.7°C 59.7°F15.4°C 50% 1.9 mph NNE3.1 kmh NNE 2.2 mph3.5 kmh 29.99 in1015.6 mb 0.00 in0.0 mm 0.00 in/hr0.0 mm/hr 0.00 in0.0 mm
11:50 AM 79.5°F26.4°C 59.8°F15.4°C 51% 1.0 mph N1.6 kmh N 4.4 mph7.1 kmh 30.00 in1015.9 mb 0.00 in0.0 mm 0.00 in/hr0.0 mm/hr 0.00 in0.0 mm
11:40 AM 79.4°F26.3°C 60.2°F15.7°C 52% 1.3 mph N2.1 kmh N 4.4 mph7.1 kmh 30.00 in1015.9 mb 0.00 in0.0 mm 0.00 in/hr0.0 mm/hr 0.00 in0.0 mm
11:30 AM 78.7°F25.9°C 61.2°F16.2°C 55% 4.2 mph ENE6.8 kmh ENE 5.5 mph8.9 kmh 30.00 in1015.9 mb 0.00 in0.0 mm 0.00 in/hr0.0 mm/hr 0.00 in0.0 mm
11:20 AM 77.4°F25.2°C 61.0°F16.1°C 57% 4.0 mph N6.4 kmh N 7.7 mph12.4 kmh 30.00 in1015.9 mb 0.00 in0.0 mm 0.00 in/hr0.0 mm/hr 0.00 in0.0 mm
11:10 AM 79.0°F26.1°C 60.9°F16.1°C 54% 3.4 mph N5.5 kmh N 9.9 mph15.9 kmh 30.00 in1015.9 mb 0.00 in0.0 mm 0.00 in/hr0.0 mm/hr 0.00 in0.0 mm
11:00 AM 78.5°F25.8°C 61.0°F16.1°C 55% 1.8 mph NE2.9 kmh NE 3.3 mph5.3 kmh 30.00 in1015.9 mb 0.00 in0.0 mm 0.00 in/hr0.0 mm/hr 0.00 in0.0 mm
10:50 AM 76.9°F24.9°C 61.0°F16.1°C 58% 2.7 mph NE4.3 kmh NE 4.4 mph7.1 kmh 30.00 in1015.9 mb 0.00 in0.0 mm 0.00 in/hr0.0 mm/hr 0.00 in0.0 mm
10:40 AM 75.7°F24.3°C 60.8°F16.0°C 60% 2.2 mph NE3.5 kmh NE 4.4 mph7.1 kmh 30.00 in1015.9 mb 0.00 in0.0 mm 0.00 in/hr0.0 mm/hr 0.00 in0.0 mm
10:30 AM 76.4°F24.7°C 61.5°F16.4°C 60% 2.4 mph NE3.9 kmh NE 6.6 mph10.6 kmh 30.00 in1015.9 mb 0.00 in0.0 mm 0.00 in/hr0.0 mm/hr 0.00 in0.0 mm
10:20 AM 76.6°F24.8°C 61.7°F16.5°C 60% 1.0 mph NNE1.6 kmh NNE 1.1 mph1.8 kmh 30.00 in1015.9 mb 0.00 in0.0 mm 0.00 in/hr0.0 mm/hr 0.00 in0.0 mm
10:10 AM 77.3°F25.2°C 61.4°F16.3°C 58% 1.7 mph WNW2.7 kmh WNW 3.3 mph5.3 kmh 30.00 in1015.9 mb 0.00 in0.0 mm 0.00 in/hr0.0 mm/hr 0.00 in0.0 mm
10:00 AM 76.3°F24.6°C 61.4°F16.3°C 60% 1.7 mph ENE2.7 kmh ENE 6.6 mph10.6 kmh 30.00 in1015.9 mb 0.00 in0.0 mm 0.00 in/hr0.0 mm/hr 0.00 in0.0 mm
09:50 AM 77.0°F25.0°C 61.1°F16.2°C 58% 1.7 mph ENE2.7 kmh ENE 4.4 mph7.1 kmh 30.00 in1015.9 mb 0.00 in0.0 mm 0.00 in/hr0.0 mm/hr 0.00 in0.0 mm
09:40 AM 76.1°F24.5°C 61.7°F16.5°C 61% 2.9 mph NNE4.7 kmh NNE 8.8 mph14.2 kmh 30.00 in1015.9 mb 0.00 in0.0 mm 0.00 in/hr0.0 mm/hr 0.00 in0.0 mm
09:30 AM 74.9°F23.8°C 61.9°F16.6°C 64% 2.2 mph ENE3.5 kmh ENE 4.4 mph7.1 kmh 30.00 in1015.9 mb 0.00 in0.0 mm 0.00 in/hr0.0 mm/hr 0.00 in0.0 mm
09:20 AM 74.4°F23.6°C 61.9°F16.6°C 65% 1.2 mph NE1.9 kmh NE 3.3 mph5.3 kmh 30.00 in1015.9 mb 0.00 in0.0 mm 0.00 in/hr0.0 mm/hr 0.00 in0.0 mm
09:10 AM 74.3°F23.5°C 62.2°F16.8°C 66% 1.9 mph NE3.1 kmh NE 8.8 mph14.2 kmh 30.00 in1015.9 mb 0.00 in0.0 mm 0.00 in/hr0.0 mm/hr 0.00 in0.0 mm
09:00 AM 73.4°F23.0°C 62.2°F16.8°C 68% 2.6 mph NNE4.2 kmh NNE 6.6 mph10.6 kmh 30.01 in1016.3 mb 0.00 in0.0 mm 0.00 in/hr0.0 mm/hr 0.00 in0.0 mm
08:50 AM 72.2°F22.3°C 61.9°F16.6°C 70% 3.1 mph E5.0 kmh E 5.5 mph8.9 kmh 30.00 in1015.9 mb 0.00 in0.0 mm 0.00 in/hr0.0 mm/hr 0.00 in0.0 mm
08:40 AM 71.8°F22.1°C 62.2°F16.8°C 72% 2.9 mph ENE4.7 kmh ENE 9.9 mph15.9 kmh 30.01 in1016.3 mb 0.00 in0.0 mm 0.00 in/hr0.0 mm/hr 0.00 in0.0 mm
08:30 AM 71.0°F21.7°C 61.5°F16.4°C 72% 3.0 mph NNW4.8 kmh NNW 5.5 mph8.9 kmh 30.01 in1016.3 mb 0.00 in0.0 mm 0.00 in/hr0.0 mm/hr 0.00 in0.0 mm
08:20 AM 70.5°F21.4°C 61.8°F16.6°C 74% 3.0 mph NE4.8 kmh NE 4.4 mph7.1 kmh 30.01 in1016.3 mb 0.00 in0.0 mm 0.00 in/hr0.0 mm/hr 0.00 in0.0 mm
08:10 AM 70.2°F21.2°C 61.9°F16.6°C 75% 2.0 mph ENE3.2 kmh ENE 3.3 mph5.3 kmh 30.01 in1016.3 mb 0.00 in0.0 mm 0.00 in/hr0.0 mm/hr 0.00 in0.0 mm
08:00 AM 69.9°F21.1°C 62.0°F16.7°C 76% 2.1 mph NNE3.4 kmh NNE 3.3 mph5.3 kmh 30.01 in1016.3 mb 0.00 in0.0 mm 0.00 in/hr0.0 mm/hr 0.00 in0.0 mm
07:50 AM 69.3°F20.7°C 61.8°F16.6°C 77% 0.6 mph S1.0 kmh S 3.3 mph5.3 kmh 30.01 in1016.3 mb 0.00 in0.0 mm 0.00 in/hr0.0 mm/hr 0.00 in0.0 mm
05:00 AM 64.3°F17.9°C 59.0°F15.0°C 83% 0.5 mph NE0.8 kmh NE 3.3 mph5.3 kmh 29.99 in1015.6 mb 0.00 in0.0 mm 0.00 in/hr0.0 mm/hr 0.00 in0.0 mm
04:50 AM 64.5°F18.1°C 59.2°F15.1°C 83% 0.5 mph NE0.8 kmh NE 2.2 mph3.5 kmh 30.00 in1015.9 mb 0.00 in0.0 mm 0.00 in/hr0.0 mm/hr 0.00 in0.0 mm
04:40 AM 64.6°F18.1°C 59.0°F15.0°C 82% 0.2 mph NE0.3 kmh NE 1.1 mph1.8 kmh 29.99 in1015.6 mb 0.00 in0.0 mm 0.00 in/hr0.0 mm/hr 0.00 in0.0 mm
04:30 AM 64.7°F18.2°C 59.1°F15.1°C 82% Calm Calm -- 29.99 in1015.6 mb 0.00 in0.0 mm 0.00 in/hr0.0 mm/hr 0.00 in0.0 mm
04:20 AM 64.9°F18.3°C 59.3°F15.2°C 82% 0.6 mph NE1.0 kmh NE -- 30.00 in1015.9 mb 0.00 in0.0 mm 0.00 in/hr0.0 mm/hr 0.00 in0.0 mm
04:10 AM 65.0°F18.3°C 59.0°F15.0°C 81% 0.3 mph NE0.5 kmh NE 1.1 mph1.8 kmh 29.99 in1015.6 mb 0.00 in0.0 mm 0.00 in/hr0.0 mm/hr 0.00 in0.0 mm
04:00 AM 65.2°F18.4°C 59.2°F15.1°C 81% Calm Calm -- 30.00 in1015.9 mb 0.00 in0.0 mm 0.00 in/hr0.0 mm/hr 0.00 in0.0 mm
03:50 AM 65.4°F18.6°C 59.4°F15.2°C 81% 0.1 mph NE0.2 kmh NE -- 30.00 in1015.9 mb 0.00 in0.0 mm 0.00 in/hr0.0 mm/hr 0.00 in0.0 mm
03:40 AM 65.5°F18.6°C 59.2°F15.1°C 80% Calm Calm 1.1 mph1.8 kmh 30.00 in1015.9 mb 0.00 in0.0 mm 0.00 in/hr0.0 mm/hr 0.00 in0.0 mm
03:30 AM 65.7°F18.7°C 59.3°F15.2°C 80% 1.1 mph NE1.8 kmh NE 2.2 mph3.5 kmh 30.00 in1015.9 mb 0.00 in0.0 mm 0.00 in/hr0.0 mm/hr 0.00 in0.0 mm
03:20 AM 65.8°F18.8°C 59.1°F15.1°C 79% Calm Calm -- 30.00 in1015.9 mb 0.00 in0.0 mm 0.00 in/hr0.0 mm/hr 0.00 in0.0 mm
03:10 AM 66.0°F18.9°C 59.3°F15.2°C 79% 0.2 mph NE0.3 kmh NE 4.4 mph7.1 kmh 30.00 in1015.9 mb 0.00 in0.0 mm 0.00 in/hr0.0 mm/hr 0.00 in0.0 mm
03:00 AM 66.1°F18.9°C 59.4°F15.2°C 79% 1.0 mph NE1.6 kmh NE 1.1 mph1.8 kmh 30.00 in1015.9 mb 0.00 in0.0 mm 0.00 in/hr0.0 mm/hr 0.00 in0.0 mm
02:50 AM 66.3°F19.1°C 59.2°F15.1°C 78% 0.9 mph NE1.4 kmh NE 1.1 mph1.8 kmh 30.00 in1015.9 mb 0.00 in0.0 mm 0.00 in/hr0.0 mm/hr 0.00 in0.0 mm
02:40 AM 66.5°F19.2°C 59.4°F15.2°C 78% 0.6 mph NE1.0 kmh NE 4.4 mph7.1 kmh 30.00 in1015.9 mb 0.00 in0.0 mm 0.00 in/hr0.0 mm/hr 0.00 in0.0 mm
02:30 AM 66.7°F19.3°C 59.3°F15.2°C 77% 0.4 mph NE0.6 kmh NE 1.1 mph1.8 kmh 30.00 in1015.9 mb 0.00 in0.0 mm 0.00 in/hr0.0 mm/hr 0.00 in0.0 mm
02:20 AM 66.8°F19.3°C 59.4°F15.2°C 77% 0.1 mph NE0.2 kmh NE 1.1 mph1.8 kmh 30.00 in1015.9 mb 0.00 in0.0 mm 0.00 in/hr0.0 mm/hr 0.00 in0.0 mm
02:10 AM 67.0°F19.4°C 59.5°F15.3°C 77% Calm Calm -- 30.00 in1015.9 mb 0.00 in0.0 mm 0.00 in/hr0.0 mm/hr 0.00 in0.0 mm
02:00 AM 67.1°F19.5°C 59.3°F15.2°C 76% 0.7 mph NE1.1 kmh NE 2.2 mph3.5 kmh 30.01 in1016.3 mb 0.00 in0.0 mm 0.00 in/hr0.0 mm/hr 0.00 in0.0 mm
01:50 AM 67.2°F19.6°C 59.4°F15.2°C 76% 1.0 mph NE1.6 kmh NE 1.1 mph1.8 kmh 30.01 in1016.3 mb 0.00 in0.0 mm 0.00 in/hr0.0 mm/hr 0.00 in0.0 mm
01:40 AM 67.4°F19.7°C 59.6°F15.3°C 76% 0.9 mph NE1.4 kmh NE 4.4 mph7.1 kmh 30.01 in1016.3 mb 0.00 in0.0 mm 0.00 in/hr0.0 mm/hr 0.00 in0.0 mm
01:30 AM 67.6°F19.8°C 59.4°F15.2°C 75% 0.7 mph NE1.1 kmh NE -- 30.01 in1016.3 mb 0.00 in0.0 mm 0.00 in/hr0.0 mm/hr 0.00 in0.0 mm
01:20 AM 67.7°F19.8°C 59.5°F15.3°C 75% Calm Calm -- 30.01 in1016.3 mb 0.00 in0.0 mm 0.00 in/hr0.0 mm/hr 0.00 in0.0 mm
01:10 AM 68.0°F20.0°C 59.4°F15.2°C 74% 0.2 mph NE0.3 kmh NE 1.1 mph1.8 kmh 30.02 in1016.6 mb 0.00 in0.0 mm 0.00 in/hr0.0 mm/hr 0.00 in0.0 mm
01:00 AM 68.3°F20.2°C 59.7°F15.4°C 74% 0.1 mph NE0.2 kmh NE 2.2 mph3.5 kmh 30.02 in1016.6 mb 0.00 in0.0 mm 0.00 in/hr0.0 mm/hr 0.00 in0.0 mm
12:50 AM 68.6°F20.3°C 59.6°F15.3°C 73% Calm Calm 1.1 mph1.8 kmh 30.02 in1016.6 mb 0.00 in0.0 mm 0.00 in/hr0.0 mm/hr 0.00 in0.0 mm
12:40 AM 68.9°F20.5°C 59.8°F15.4°C 73% Calm Calm -- 30.02 in1016.6 mb 0.00 in0.0 mm 0.00 in/hr0.0 mm/hr 0.00 in0.0 mm
12:30 AM 69.1°F20.6°C 59.7°F15.4°C 72% Calm Calm 1.1 mph1.8 kmh 30.02 in1016.6 mb 0.00 in0.0 mm 0.00 in/hr0.0 mm/hr 0.00 in0.0 mm
12:20 AM 69.3°F20.7°C 59.9°F15.5°C 72% 0.1 mph NE0.2 kmh NE 1.1 mph1.8 kmh 30.02 in1016.6 mb 0.00 in0.0 mm 0.00 in/hr0.0 mm/hr 0.00 in0.0 mm
12:10 AM 69.5°F20.8°C 60.1°F15.6°C 72% Calm Calm -- 30.02 in1016.6 mb 0.00 in0.0 mm 0.00 in/hr0.0 mm/hr 0.00 in0.0 mm
12:00 AM 69.8°F21.0°C 60.0°F15.6°C 71% 0.1 mph NE0.2 kmh NE 1.1 mph1.8 kmh 30.02 in1016.6 mb 0.00 in0.0 mm 0.00 in/hr0.0 mm/hr 0.00 in0.0 mm